Time;durP1;ratioP1;P1;durP2;ratioP2;P2;SDS_P1;SDS_P2;PMS_P1;PMS_P2;Temp;Humidity;BMP_temperature;BMP_pressure;BME280_temperature;BME280_humidity;BME280_pressure;Samples;Min_cycle;Max_cycle;Signal;HPM_P1;HPM_P2
2022/01/08 00:01:30;;;;;;;6.73;1.60;;;6.10;99.90;;;;;;6180202;23;20182;-84
2022/01/08 00:03:57;;;;;;;8.47;2.40;;;6.10;99.90;;;;;;6178140;23;20170;-85
2022/01/08 00:06:24;;;;;;;10.13;2.57;;;6.10;99.90;;;;;;6175909;23;20190;-83
2022/01/08 00:08:51;;;;;;;10.20;2.50;;;6.30;99.90;;;;;;6176707;23;20174;-84
2022/01/08 00:11:20;;;;;;;8.67;1.90;;;6.30;99.90;;;;;;6178075;23;20177;-84
2022/01/08 00:13:47;;;;;;;9.83;2.60;;;6.40;99.90;;;;;;6177856;23;20183;-84
2022/01/08 00:16:14;;;;;;;12.60;2.33;;;6.40;99.90;;;;;;6177741;23;20170;-83
2022/01/08 00:18:43;;;;;;;7.60;2.20;;;6.30;99.90;;;;;;6176834;23;20179;-83
2022/01/08 00:21:09;;;;;;;11.77;2.33;;;6.30;99.90;;;;;;6178749;23;20181;-84
2022/01/08 00:23:36;;;;;;;9.53;2.67;;;6.30;99.90;;;;;;6176559;23;20185;-83
2022/01/08 00:26:04;;;;;;;12.93;3.20;;;6.30;99.90;;;;;;6177255;23;20202;-83
2022/01/08 00:28:32;;;;;;;9.90;3.00;;;6.30;99.90;;;;;;6177816;23;20209;-84
2022/01/08 00:30:59;;;;;;;10.53;2.57;;;6.30;99.90;;;;;;6177365;23;20598;-82
2022/01/08 00:33:25;;;;;;;12.03;2.67;;;6.40;99.90;;;;;;6177869;23;20587;-82
2022/01/08 00:35:54;;;;;;;7.10;1.70;;;6.40;99.90;;;;;;6179151;23;20178;-83
2022/01/08 00:38:20;;;;;;;6.60;2.00;;;6.40;99.90;;;;;;6179592;23;20191;-84
2022/01/08 00:40:47;;;;;;;14.40;2.87;;;6.40;99.90;;;;;;6179572;23;20167;-83
2022/01/08 00:43:14;;;;;;;8.50;2.80;;;6.50;99.90;;;;;;6180009;23;20179;-82
2022/01/08 00:45:41;;;;;;;11.50;2.07;;;6.40;99.90;;;;;;6181206;23;20174;-85
2022/01/08 00:48:08;;;;;;;7.00;2.53;;;6.50;99.90;;;;;;6181029;23;20241;-82
2022/01/08 00:50:35;;;;;;;9.90;2.13;;;6.40;99.90;;;;;;6180806;23;20166;-82
2022/01/08 00:53:03;;;;;;;11.00;2.33;;;6.50;99.90;;;;;;6181761;23;20189;-82
2022/01/08 00:55:30;;;;;;;9.50;2.10;;;6.50;99.90;;;;;;6181449;23;20176;-82
2022/01/08 00:57:57;;;;;;;9.50;2.10;;;6.40;99.90;;;;;;6180488;23;20171;-83
2022/01/08 01:00:23;;;;;;;13.13;2.60;;;6.50;99.90;;;;;;6181608;23;20174;-83
2022/01/08 01:02:51;;;;;;;9.60;2.53;;;6.50;99.90;;;;;;6181153;23;20177;-83
2022/01/08 01:05:19;;;;;;;7.90;2.37;;;6.40;99.90;;;;;;6180853;23;20181;-82
2022/01/08 01:07:46;;;;;;;10.37;1.97;;;6.40;99.90;;;;;;6177542;23;20714;-83
2022/01/08 01:10:15;;;;;;;8.87;2.27;;;6.40;99.90;;;;;;6180896;23;20174;-84
2022/01/08 01:12:42;;;;;;;6.93;1.90;;;6.40;99.90;;;;;;6180912;23;20179;-82
2022/01/08 01:15:12;;;;;;;8.20;2.17;;;6.30;99.90;;;;;;6182012;23;20174;-83
2022/01/08 01:17:39;;;;;;;3.83;1.23;;;6.30;99.90;;;;;;6182047;23;20438;-85
2022/01/08 01:20:07;;;;;;;9.13;1.93;;;6.30;99.90;;;;;;6181702;23;20171;-83
2022/01/08 01:22:44;;;;;;;7.67;1.50;;;6.20;99.90;;;;;;6181732;23;20179;-81
2022/01/08 01:25:15;;;;;;;3.40;1.30;;;6.20;99.90;;;;;;6180889;23;20191;-85
2022/01/08 01:27:59;;;;;;;4.53;1.47;;;6.20;99.90;;;;;;6180362;23;20195;-81
2022/01/08 01:30:50;;;;;;;7.87;2.03;;;6.20;99.90;;;;;;6180409;23;20170;-81
2022/01/08 01:41:40;;;;;;;9.13;1.83;;;6.10;99.90;;;;;;6179670;23;20311;-81
2022/01/08 01:47:02;;;;;;;4.97;1.40;;;6.00;99.90;;;;;;6127151;23;20213;-81
2022/01/08 01:49:30;;;;;;;3.13;1.07;;;5.90;99.90;;;;;;6181198;23;20175;-81
2022/01/08 01:52:00;;;;;;;4.47;1.07;;;5.80;99.90;;;;;;6180612;23;20175;-81
2022/01/08 01:54:27;;;;;;;3.40;1.43;;;5.70;99.90;;;;;;6179275;23;20182;-81
2022/01/08 01:56:55;;;;;;;2.93;0.93;;;5.60;99.90;;;;;;6178851;23;20174;-83
2022/01/08 01:59:23;;;;;;;3.90;1.20;;;5.50;99.90;;;;;;6181110;23;20221;-83
2022/01/08 02:01:51;;;;;;;5.43;1.20;;;5.40;99.90;;;;;;6180077;23;20175;-82
2022/01/08 02:04:17;;;;;;;4.13;1.20;;;5.40;99.90;;;;;;6180774;23;20564;-82
2022/01/08 02:06:44;;;;;;;7.27;1.37;;;5.30;99.90;;;;;;6179911;23;20198;-81
2022/01/08 02:09:11;;;;;;;4.13;1.37;;;5.30;99.90;;;;;;6180007;23;20167;-82
2022/01/08 02:11:57;;;;;;;7.80;1.53;;;5.30;99.90;;;;;;6180376;23;20198;-83
2022/01/08 02:14:25;;;;;;;8.30;1.63;;;5.30;99.90;;;;;;6180627;23;20167;-82
2022/01/08 02:16:52;;;;;;;5.03;1.10;;;5.30;99.90;;;;;;6180590;23;20179;-83
2022/01/08 02:19:19;;;;;;;6.27;1.57;;;5.40;99.90;;;;;;6180196;23;20174;-83
2022/01/08 02:21:49;;;;;;;9.43;1.90;;;5.40;99.90;;;;;;6179926;23;20171;-82
2022/01/08 02:24:17;;;;;;;8.07;1.60;;;5.60;99.90;;;;;;6180464;23;20167;-84
2022/01/08 02:26:44;;;;;;;9.70;1.73;;;5.60;99.90;;;;;;6180495;23;20210;-83
2022/01/08 02:29:12;;;;;;;11.53;2.80;;;5.70;99.90;;;;;;6179523;23;20174;-82
2022/01/08 02:31:39;;;;;;;10.00;1.40;;;5.70;99.90;;;;;;6179686;23;20857;-80
2022/01/08 02:34:06;;;;;;;7.23;2.03;;;5.70;99.90;;;;;;6180120;23;20213;-82
2022/01/08 02:36:34;;;;;;;7.90;2.50;;;5.70;99.90;;;;;;6180189;23;20199;-82
2022/01/08 02:39:02;;;;;;;5.13;1.50;;;5.60;99.90;;;;;;6178060;23;20197;-82
2022/01/08 02:41:29;;;;;;;9.47;1.80;;;5.60;99.90;;;;;;6178188;23;20174;-83
2022/01/08 02:43:56;;;;;;;8.60;2.10;;;5.70;99.90;;;;;;6181130;23;20258;-83
2022/01/08 02:46:23;;;;;;;7.57;2.07;;;5.80;99.90;;;;;;6181739;23;20325;-85
2022/01/08 02:48:50;;;;;;;11.17;3.50;;;5.80;99.90;;;;;;6182593;23;20578;-84
2022/01/08 02:51:17;;;;;;;6.70;2.23;;;5.70;99.90;;;;;;6182457;23;20407;-85
2022/01/08 02:53:44;;;;;;;7.67;1.90;;;5.70;99.90;;;;;;6182087;23;20420;-87
2022/01/08 02:56:12;;;;;;;7.57;1.73;;;5.60;99.90;;;;;;6182725;23;20560;-86
2022/01/08 02:58:39;;;;;;;8.83;1.90;;;5.50;99.90;;;;;;6182539;23;20171;-87
2022/01/08 03:01:05;;;;;;;8.17;1.93;;;5.50;99.90;;;;;;6182711;23;20170;-89
2022/01/08 03:03:33;;;;;;;8.53;2.10;;;5.50;99.90;;;;;;6181576;23;20172;-88
2022/01/08 03:06:00;;;;;;;7.23;2.27;;;5.50;99.90;;;;;;6182364;23;20178;-85
2022/01/08 03:08:27;;;;;;;6.63;2.17;;;5.50;99.90;;;;;;6182326;23;20190;-88
2022/01/08 03:10:54;;;;;;;10.07;2.70;;;5.50;99.90;;;;;;6182451;23;20179;-87
2022/01/08 03:13:22;;;;;;;10.33;2.10;;;5.50;99.90;;;;;;6182476;23;20169;-89
2022/01/08 03:15:49;;;;;;;11.23;2.83;;;5.50;99.90;;;;;;6182547;23;20171;-88
2022/01/08 03:18:16;;;;;;;6.63;1.90;;;5.50;99.90;;;;;;6182406;23;20167;-88
2022/01/08 03:20:48;;;;;;;12.60;4.17;;;5.50;99.90;;;;;;6182538;23;20205;-89
2022/01/08 03:23:17;;;;;;;8.80;2.40;;;5.40;99.90;;;;;;6182643;23;20167;-90
2022/01/08 03:25:44;;;;;;;8.70;3.50;;;5.30;99.90;;;;;;6181433;23;20170;-88
2022/01/08 03:28:11;;;;;;;17.33;5.13;;;5.20;99.90;;;;;;6182850;23;20202;-84
2022/01/08 03:30:40;;;;;;;10.57;3.83;;;5.20;99.90;;;;;;6181783;23;20570;-89
2022/01/08 03:33:07;;;;;;;13.87;4.73;;;5.10;99.90;;;;;;6182210;23;20225;-84
2022/01/08 03:35:34;;;;;;;15.93;5.17;;;5.00;99.90;;;;;;6181521;23;20175;-85
2022/01/08 03:38:01;;;;;;;10.27;4.10;;;4.90;99.90;;;;;;6181509;23;20245;-86
2022/01/08 03:40:28;;;;;;;16.73;3.70;;;4.90;99.90;;;;;;6180906;23;20175;-88
2022/01/08 03:42:55;;;;;;;19.37;4.50;;;4.90;99.90;;;;;;6182402;23;20163;-88
2022/01/08 03:45:21;;;;;;;16.63;6.07;;;4.90;99.90;;;;;;6181506;23;20171;-89
2022/01/08 03:50:36;;;;;;;11.30;3.30;;;4.80;99.90;;;;;;6175686;23;20689;-87
2022/01/08 03:53:03;;;;;;;23.47;4.60;;;4.90;99.90;;;;;;6181789;23;20434;-85
2022/01/08 03:55:29;;;;;;;8.97;2.57;;;5.00;99.90;;;;;;6181514;23;20182;-85
2022/01/08 03:57:56;;;;;;;20.10;4.83;;;5.10;99.90;;;;;;6181353;23;20171;-86
2022/01/08 04:00:23;;;;;;;8.20;2.43;;;5.10;99.90;;;;;;6181676;23;20452;-86
2022/01/08 04:02:53;;;;;;;13.17;2.20;;;5.10;99.90;;;;;;6181485;23;20170;-87
2022/01/08 04:05:20;;;;;;;10.40;2.73;;;5.10;99.90;;;;;;6181828;23;20177;-85
2022/01/08 04:07:47;;;;;;;6.90;1.90;;;5.10;99.90;;;;;;6181251;23;20197;-86
2022/01/08 04:10:14;;;;;;;7.83;2.20;;;5.00;99.90;;;;;;6181004;23;20206;-87
2022/01/08 04:12:44;;;;;;;6.23;1.60;;;5.00;99.90;;;;;;6177724;23;20171;-87
2022/01/08 04:15:32;;;;;;;3.83;1.57;;;5.00;99.90;;;;;;6180941;23;20190;-88
2022/01/08 04:18:01;;;;;;;11.60;1.90;;;5.00;99.90;;;;;;6182006;23;20826;-87
2022/01/08 04:20:27;;;;;;;7.90;1.80;;;5.10;99.90;;;;;;6181893;23;20179;-89
2022/01/08 04:22:55;;;;;;;4.67;1.10;;;5.10;99.90;;;;;;6182150;23;20163;-87
2022/01/08 04:25:24;;;;;;;8.43;1.50;;;5.10;99.90;;;;;;6181710;23;20221;-86
2022/01/08 04:27:51;;;;;;;7.53;2.60;;;5.10;99.90;;;;;;6181777;23;20190;-86
2022/01/08 04:30:18;;;;;;;5.77;1.20;;;5.00;99.90;;;;;;6181932;23;20212;-88
2022/01/08 04:32:45;;;;;;;5.70;1.50;;;5.00;99.90;;;;;;6179906;23;20206;-88
2022/01/08 04:35:13;;;;;;;4.23;1.20;;;5.00;99.90;;;;;;6180512;23;20535;-84
2022/01/08 04:37:40;;;;;;;6.30;1.80;;;5.10;99.90;;;;;;6182033;23;20195;-87
2022/01/08 04:40:08;;;;;;;4.93;1.40;;;5.10;99.90;;;;;;6181578;23;20170;-84
2022/01/08 04:42:34;;;;;;;6.40;1.90;;;5.10;99.90;;;;;;6181908;23;20182;-85
2022/01/08 04:45:01;;;;;;;7.93;1.90;;;5.10;99.90;;;;;;6181290;23;20225;-83
2022/01/08 04:47:28;;;;;;;9.87;2.33;;;5.10;99.90;;;;;;6181408;23;20191;-88
2022/01/08 04:49:55;;;;;;;11.00;1.63;;;5.10;99.90;;;;;;6181515;23;20177;-87
2022/01/08 04:52:24;;;;;;;3.97;1.70;;;5.10;99.90;;;;;;6181323;23;20177;-86
2022/01/08 04:54:51;;;;;;;8.57;2.23;;;5.10;99.90;;;;;;6181818;23;20485;-89
2022/01/08 04:57:18;;;;;;;8.43;2.10;;;5.00;99.90;;;;;;6181378;23;20167;-88
2022/01/08 04:59:45;;;;;;;8.63;2.27;;;5.10;99.90;;;;;;6180758;23;20209;-85
2022/01/08 05:02:12;;;;;;;6.37;2.33;;;5.10;99.90;;;;;;6181693;23;20179;-85
2022/01/08 05:04:38;;;;;;;4.20;1.90;;;5.20;99.90;;;;;;6180305;23;20175;-87
2022/01/08 05:07:05;;;;;;;10.90;2.03;;;5.20;99.90;;;;;;6181018;23;20194;-86
2022/01/08 05:09:33;;;;;;;7.77;2.30;;;5.20;99.90;;;;;;6180655;23;20171;-86
2022/01/08 05:12:00;;;;;;;4.27;2.10;;;5.20;99.90;;;;;;6180771;23;20208;-83
2022/01/08 05:14:27;;;;;;;5.73;1.87;;;5.30;99.90;;;;;;6180762;23;20171;-83
2022/01/08 05:16:58;;;;;;;6.63;1.70;;;5.30;99.90;;;;;;6181513;23;20186;-86
2022/01/08 05:19:37;;;;;;;6.47;2.20;;;5.30;99.90;;;;;;6180290;23;20167;-87
2022/01/08 05:22:06;;;;;;;6.33;2.23;;;5.30;99.90;;;;;;6180365;23;20229;-85
2022/01/08 05:24:34;;;;;;;8.07;2.50;;;5.20;99.90;;;;;;6180561;23;20198;-85
2022/01/08 05:27:03;;;;;;;7.70;2.37;;;5.20;99.90;;;;;;6180820;23;20239;-85
2022/01/08 05:29:30;;;;;;;6.70;2.30;;;5.20;99.90;;;;;;6180360;23;20182;-85
2022/01/08 05:31:57;;;;;;;8.50;2.33;;;5.30;99.90;;;;;;6181452;23;20167;-85
2022/01/08 05:34:24;;;;;;;11.97;2.77;;;5.20;99.90;;;;;;6182252;23;20213;-85
2022/01/08 05:36:51;;;;;;;8.00;2.20;;;5.30;99.90;;;;;;6181672;23;20175;-83
2022/01/08 05:39:18;;;;;;;7.70;2.17;;;5.30;99.90;;;;;;6182331;23;20194;-85
2022/01/08 05:41:46;;;;;;;12.23;2.77;;;5.20;99.90;;;;;;6182044;23;20178;-84
2022/01/08 05:44:13;;;;;;;12.37;2.67;;;5.20;99.90;;;;;;6180136;23;20177;-85
2022/01/08 05:46:44;;;;;;;11.33;3.13;;;5.20;99.90;;;;;;6179605;23;20178;-89
2022/01/08 05:49:12;;;;;;;5.67;2.30;;;5.10;99.90;;;;;;6183355;23;20556;-88
2022/01/08 05:51:39;;;;;;;7.47;1.77;;;5.00;99.90;;;;;;6184198;23;20174;-88
2022/01/08 05:54:06;;;;;;;8.03;2.60;;;5.00;99.90;;;;;;6183055;23;20174;-86
2022/01/08 05:56:32;;;;;;;8.47;2.00;;;5.00;99.90;;;;;;6183683;23;20179;-88
2022/01/08 05:59:01;;;;;;;7.30;2.17;;;5.00;99.90;;;;;;6183351;23;20175;-85
2022/01/08 06:01:28;;;;;;;6.60;3.13;;;5.00;99.90;;;;;;6181597;23;20175;-86
2022/01/08 06:03:54;;;;;;;7.13;2.27;;;5.00;99.90;;;;;;6182751;23;20186;-86
2022/01/08 06:06:21;;;;;;;8.00;2.10;;;5.00;99.90;;;;;;6183076;23;20167;-83
2022/01/08 06:08:48;;;;;;;8.10;3.43;;;5.00;99.90;;;;;;6183323;23;20249;-86
2022/01/08 06:11:15;;;;;;;9.53;2.67;;;5.10;99.90;;;;;;6183797;23;20183;-89
2022/01/08 06:13:42;;;;;;;8.47;2.57;;;5.20;99.90;;;;;;6182563;23;20181;-86
2022/01/08 06:16:10;;;;;;;8.47;2.43;;;5.20;99.90;;;;;;6183210;23;20182;-88
2022/01/08 06:18:37;;;;;;;9.17;1.97;;;5.10;99.90;;;;;;6182654;23;20175;-86
2022/01/08 06:21:04;;;;;;;7.53;2.70;;;5.10;99.90;;;;;;6182562;23;20198;-88
2022/01/08 06:23:31;;;;;;;9.93;2.10;;;5.10;99.90;;;;;;6181970;23;20568;-87
2022/01/08 06:25:59;;;;;;;11.53;2.50;;;5.10;99.90;;;;;;6182282;23;20846;-88
2022/01/08 06:28:26;;;;;;;12.90;3.47;;;5.10;99.90;;;;;;6181895;23;20201;-85
2022/01/08 06:30:54;;;;;;;6.37;3.07;;;5.10;99.90;;;;;;6182245;23;20171;-83
2022/01/08 06:33:22;;;;;;;8.37;3.00;;;5.00;99.90;;;;;;6182188;23;20199;-86
2022/01/08 06:35:51;;;;;;;11.67;2.77;;;5.00;99.90;;;;;;6182121;23;20181;-83
2022/01/08 06:38:18;;;;;;;7.93;2.57;;;5.00;99.90;;;;;;6181874;23;20565;-84
2022/01/08 06:40:45;;;;;;;8.47;2.97;;;5.00;99.90;;;;;;6182377;23;20170;-85
2022/01/08 06:43:12;;;;;;;5.77;2.50;;;5.00;99.90;;;;;;6181584;23;20174;-87
2022/01/08 06:45:39;;;;;;;10.40;3.00;;;4.90;99.90;;;;;;6181803;23;20169;-87
2022/01/08 06:48:05;;;;;;;9.40;3.37;;;4.90;99.90;;;;;;6182611;23;20190;-84
2022/01/08 06:50:34;;;;;;;12.03;3.93;;;4.80;99.90;;;;;;6181593;23;20175;-84
2022/01/08 06:53:00;;;;;;;11.70;3.67;;;4.90;99.90;;;;;;6183023;23;20783;-88
2022/01/08 06:55:27;;;;;;;9.43;3.00;;;4.80;99.90;;;;;;6182083;23;20171;-85
2022/01/08 06:57:55;;;;;;;16.83;5.23;;;4.80;99.90;;;;;;6181868;23;20175;-84
2022/01/08 07:00:22;;;;;;;17.17;3.93;;;4.80;99.90;;;;;;6181658;23;20245;-85
2022/01/08 07:02:49;;;;;;;9.33;4.17;;;4.70;99.90;;;;;;6181490;23;20441;-84
2022/01/08 07:05:15;;;;;;;13.17;3.27;;;4.70;99.90;;;;;;6182460;23;20178;-84
2022/01/08 07:07:44;;;;;;;12.43;3.67;;;4.80;99.90;;;;;;6181009;23;20191;-86
2022/01/08 07:10:10;;;;;;;8.40;2.17;;;4.80;99.90;;;;;;6181302;23;20167;-87
2022/01/08 07:12:37;;;;;;;5.80;1.63;;;4.80;99.90;;;;;;6181392;23;20175;-84
2022/01/08 07:15:06;;;;;;;6.60;1.90;;;4.80;99.90;;;;;;6181055;23;20171;-86
2022/01/08 07:17:32;;;;;;;8.67;2.13;;;4.90;99.90;;;;;;6177854;23;20567;-85
2022/01/08 07:19:59;;;;;;;10.07;1.90;;;4.80;99.90;;;;;;6180500;23;20182;-88
2022/01/08 07:22:26;;;;;;;6.83;1.90;;;4.80;99.90;;;;;;6183002;23;20183;-87
2022/01/08 07:24:54;;;;;;;8.57;2.50;;;4.80;99.90;;;;;;6182495;23;20182;-87
2022/01/08 07:27:21;;;;;;;11.43;3.40;;;4.80;99.90;;;;;;6182951;23;20182;-86
2022/01/08 07:29:48;;;;;;;7.43;2.50;;;4.90;99.90;;;;;;6181540;23;20209;-85
2022/01/08 07:32:15;;;;;;;8.53;2.33;;;4.90;99.90;;;;;;6182146;23;20239;-86
2022/01/08 07:34:41;;;;;;;7.17;1.80;;;4.90;99.90;;;;;;6181794;23;20178;-86
2022/01/08 07:37:08;;;;;;;7.23;2.73;;;4.90;99.90;;;;;;6182321;23;20204;-86
2022/01/08 07:39:35;;;;;;;7.80;2.63;;;4.90;99.90;;;;;;6182640;23;20465;-87
2022/01/08 07:42:04;;;;;;;4.87;2.07;;;4.90;99.90;;;;;;6181545;23;20599;-88
2022/01/08 07:44:31;;;;;;;7.50;2.37;;;4.90;99.90;;;;;;6182777;23;20170;-84
2022/01/08 07:46:59;;;;;;;4.63;1.80;;;5.00;99.90;;;;;;6181572;23;20186;-86
2022/01/08 07:49:26;;;;;;;3.90;1.70;;;5.00;99.90;;;;;;6181436;23;20202;-86
2022/01/08 07:51:53;;;;;;;4.30;1.63;;;5.00;99.90;;;;;;6182308;23;20167;-89
2022/01/08 07:54:20;;;;;;;6.43;2.10;;;5.00;99.90;;;;;;6182301;23;20195;-87
2022/01/08 07:56:47;;;;;;;9.20;2.47;;;5.00;99.90;;;;;;6182581;23;20553;-89
2022/01/08 07:59:15;;;;;;;7.27;2.40;;;5.00;99.90;;;;;;6182366;23;20167;-89
2022/01/08 08:01:42;;;;;;;5.13;2.27;;;5.00;99.90;;;;;;6182233;23;20202;-90
2022/01/08 08:04:09;;;;;;;5.03;2.20;;;5.00;99.90;;;;;;6182797;23;20170;-89
2022/01/08 08:06:44;;;;;;;10.53;2.30;;;5.00;99.90;;;;;;6181418;23;20411;-87
2022/01/08 08:09:10;;;;;;;5.77;1.80;;;5.00;99.90;;;;;;6182834;23;20186;-90
2022/01/08 08:11:37;;;;;;;6.73;2.27;;;5.10;99.90;;;;;;6181517;23;20178;-86
2022/01/08 08:14:04;;;;;;;7.13;2.23;;;5.10;99.90;;;;;;6181763;23;20167;-89
2022/01/08 08:16:33;;;;;;;9.07;2.30;;;5.10;99.90;;;;;;6179959;23;20178;-89
2022/01/08 08:19:00;;;;;;;7.67;1.93;;;5.20;99.90;;;;;;6178645;23;20176;-88
2022/01/08 08:21:27;;;;;;;6.97;2.10;;;5.20;99.90;;;;;;6177110;23;20170;-86
2022/01/08 08:23:54;;;;;;;4.57;1.63;;;5.20;99.90;;;;;;6178413;23;20178;-90
2022/01/08 08:26:21;;;;;;;5.30;1.77;;;5.30;99.90;;;;;;6179738;23;20167;-91
2022/01/08 08:28:48;;;;;;;5.77;1.80;;;5.30;99.90;;;;;;6180612;23;20194;-87
2022/01/08 08:31:15;;;;;;;6.13;1.70;;;5.30;99.90;;;;;;6181140;23;20185;-89
2022/01/08 08:33:43;;;;;;;4.73;1.47;;;5.30;99.90;;;;;;6161494;23;20202;-89
2022/01/08 08:36:10;;;;;;;10.00;2.07;;;5.40;99.90;;;;;;6179170;23;20175;-88
2022/01/08 08:38:36;;;;;;;8.60;1.80;;;5.40;99.90;;;;;;6175119;23;20195;-87
2022/01/08 08:41:03;;;;;;;3.17;1.40;;;5.40;99.90;;;;;;6177547;23;20593;-88
2022/01/08 08:43:30;;;;;;;5.50;1.53;;;5.40;99.90;;;;;;6178001;23;20170;-86
2022/01/08 08:45:57;;;;;;;4.33;1.40;;;5.50;99.90;;;;;;6180093;23;20177;-88
2022/01/08 08:48:24;;;;;;;9.43;1.87;;;5.50;99.90;;;;;;6170305;23;20201;-89
2022/01/08 08:50:52;;;;;;;5.60;1.83;;;5.50;99.90;;;;;;6181011;23;20173;-90
2022/01/08 08:53:19;;;;;;;3.67;1.50;;;5.50;99.90;;;;;;6181417;23;20622;-85
2022/01/08 08:55:47;;;;;;;6.33;1.53;;;5.50;99.90;;;;;;6181337;23;20171;-88
2022/01/08 08:58:14;;;;;;;5.47;2.30;;;5.50;99.90;;;;;;6181262;23;20442;-84
2022/01/08 09:00:41;;;;;;;7.97;2.30;;;5.50;99.90;;;;;;6181997;23;20193;-88
2022/01/08 09:03:08;;;;;;;5.70;2.57;;;5.40;99.90;;;;;;6182643;23;20174;-88
2022/01/08 09:05:35;;;;;;;8.83;2.37;;;5.30;99.90;;;;;;6183444;23;20166;-89
2022/01/08 09:08:04;;;;;;;7.17;2.77;;;5.20;99.90;;;;;;6184008;23;20194;-88
2022/01/08 09:10:33;;;;;;;7.17;2.37;;;5.10;99.90;;;;;;6182200;23;20171;-88
2022/01/08 09:13:00;;;;;;;5.23;1.67;;;5.10;99.90;;;;;;6182772;23;20175;-88
2022/01/08 09:15:27;;;;;;;11.70;3.23;;;5.10;99.90;;;;;;6183809;23;20181;-88
2022/01/08 09:17:57;;;;;;;7.10;2.27;;;5.10;99.90;;;;;;6182038;23;20286;-85
2022/01/08 09:20:24;;;;;;;5.67;2.83;;;5.00;99.90;;;;;;6184056;23;20171;-86
2022/01/08 09:22:52;;;;;;;7.40;2.30;;;5.00;99.90;;;;;;6184297;23;20340;-85
2022/01/08 09:25:20;;;;;;;8.03;2.60;;;5.00;99.90;;;;;;6183233;23;20181;-87
2022/01/08 09:27:47;;;;;;;6.70;2.27;;;5.00;99.90;;;;;;6183647;23;20166;-86
2022/01/08 09:30:14;;;;;;;7.13;2.27;;;5.10;99.90;;;;;;6182934;23;20206;-88
2022/01/08 09:32:43;;;;;;;6.90;2.37;;;5.00;99.90;;;;;;6183222;23;20197;-86
2022/01/08 09:35:11;;;;;;;7.30;2.60;;;5.10;99.90;;;;;;6181446;23;20487;-87
2022/01/08 09:37:39;;;;;;;8.00;2.10;;;5.00;99.90;;;;;;6182241;23;20206;-87
2022/01/08 09:40:08;;;;;;;4.73;2.10;;;5.10;99.90;;;;;;6183346;23;20171;-86
2022/01/08 09:42:36;;;;;;;7.63;2.40;;;5.10;99.90;;;;;;6183216;23;20167;-87
2022/01/08 09:45:04;;;;;;;8.23;2.70;;;5.00;99.90;;;;;;6182947;23;20190;-88
2022/01/08 09:47:32;;;;;;;5.67;2.67;;;5.00;99.90;;;;;;6184007;23;20197;-86
2022/01/08 09:49:58;;;;;;;9.33;3.40;;;5.00;99.90;;;;;;6183452;23;20205;-86
2022/01/08 09:52:25;;;;;;;8.00;2.80;;;5.00;99.90;;;;;;6181394;23;20182;-85
2022/01/08 09:54:52;;;;;;;10.20;3.03;;;5.00;99.90;;;;;;6182373;23;20178;-85
2022/01/08 09:57:19;;;;;;;9.67;2.83;;;5.00;99.90;;;;;;6182439;23;20167;-87
2022/01/08 09:59:48;;;;;;;6.33;2.70;;;5.00;99.90;;;;;;6182694;23;20249;-87
2022/01/08 10:02:15;;;;;;;8.80;2.67;;;5.00;99.90;;;;;;6182367;23;20174;-85
2022/01/08 10:04:41;;;;;;;8.13;4.17;;;5.00;99.90;;;;;;6182774;23;20492;-85
2022/01/08 10:07:16;;;;;;;12.43;3.30;;;5.00;99.90;;;;;;6183829;23;20181;-87
2022/01/08 10:10:00;;;;;;;7.83;3.00;;;5.00;99.90;;;;;;6182136;23;20729;-86
2022/01/08 10:12:43;;;;;;;10.80;3.53;;;5.00;99.90;;;;;;6182938;23;20446;-85
2022/01/08 10:17:57;;;;;;;9.13;3.37;;;5.00;99.90;;;;;;6181606;23;20234;-86
2022/01/08 10:20:36;;;;;;;9.33;3.83;;;5.00;99.90;;;;;;6182145;23;20171;-86
2022/01/08 10:23:15;;;;;;;8.40;3.67;;;5.00;99.90;;;;;;6177529;23;20608;-87
2022/01/08 10:25:44;;;;;;;11.23;4.30;;;5.00;99.90;;;;;;6184101;23;20609;-86
2022/01/08 10:28:10;;;;;;;14.43;5.23;;;5.00;99.90;;;;;;6183297;23;20222;-86
2022/01/08 10:30:39;;;;;;;10.00;3.73;;;5.00;99.90;;;;;;6182469;23;20691;-84
2022/01/08 10:33:05;;;;;;;10.43;5.20;;;5.10;99.90;;;;;;6181054;23;20203;-84
2022/01/08 10:35:50;;;;;;;9.60;4.43;;;5.10;99.90;;;;;;6182065;23;20173;-84
2022/01/08 10:38:17;;;;;;;12.90;5.40;;;5.10;99.90;;;;;;6181660;23;20197;-86
2022/01/08 10:40:44;;;;;;;7.23;5.03;;;5.00;99.90;;;;;;6182170;23;20171;-87
2022/01/08 10:43:26;;;;;;;14.30;5.80;;;5.00;99.90;;;;;;6182676;23;20178;-87
2022/01/08 10:45:55;;;;;;;11.17;6.30;;;5.10;99.90;;;;;;6183352;23;20175;-85
2022/01/08 10:48:27;;;;;;;13.03;6.23;;;5.10;99.90;;;;;;6182522;23;20167;-85
2022/01/08 10:50:55;;;;;;;10.77;5.90;;;5.10;99.90;;;;;;6183067;23;20208;-86
2022/01/08 10:53:22;;;;;;;11.67;6.70;;;5.10;99.90;;;;;;6182393;23;20197;-87
2022/01/08 10:55:48;;;;;;;10.53;6.07;;;5.10;99.90;;;;;;6183164;23;20174;-85
2022/01/08 10:58:17;;;;;;;15.03;7.20;;;5.10;99.90;;;;;;6182783;23;20178;-86
2022/01/08 11:00:44;;;;;;;11.53;6.27;;;5.20;99.90;;;;;;6181381;23;20166;-84
2022/01/08 11:03:12;;;;;;;12.57;7.10;;;5.20;99.90;;;;;;6180976;23;20173;-85
2022/01/08 11:06:01;;;;;;;8.57;6.57;;;5.20;99.90;;;;;;6180657;23;20171;-84
2022/01/08 11:08:27;;;;;;;13.43;6.83;;;5.20;99.90;;;;;;6179742;23;20182;-83
2022/01/08 11:10:54;;;;;;;14.47;6.90;;;5.20;99.90;;;;;;6180007;23;20466;-82
2022/01/08 11:13:22;;;;;;;10.47;6.23;;;5.20;99.90;;;;;;6179436;23;20171;-81
2022/01/08 11:15:51;;;;;;;13.80;6.80;;;5.20;99.90;;;;;;6180401;23;20482;-86
2022/01/08 11:18:20;;;;;;;9.83;6.63;;;5.30;99.90;;;;;;6182507;23;20259;-86
2022/01/08 11:20:48;;;;;;;13.53;6.90;;;5.30;99.90;;;;;;6180667;23;20174;-85
2022/01/08 11:23:22;;;;;;;11.07;6.77;;;5.30;99.90;;;;;;6182833;23;20182;-85
2022/01/08 11:25:51;;;;;;;12.33;7.40;;;5.20;99.90;;;;;;6182479;23;20179;-84
2022/01/08 11:28:19;;;;;;;10.23;7.30;;;5.20;99.90;;;;;;6179371;23;20175;-81
2022/01/08 11:30:48;;;;;;;15.90;7.10;;;5.20;99.90;;;;;;6178685;23;20893;-82
2022/01/08 11:33:19;;;;;;;14.30;7.37;;;5.20;99.90;;;;;;6181432;23;20210;-85
2022/01/08 11:35:50;;;;;;;10.63;5.90;;;5.20;99.90;;;;;;6181102;23;20171;-85
2022/01/08 11:38:19;;;;;;;11.60;6.93;;;5.20;99.90;;;;;;6179688;23;20723;-82
2022/01/08 11:40:48;;;;;;;9.13;6.07;;;5.30;99.90;;;;;;6179372;23;20250;-82
2022/01/08 11:43:18;;;;;;;11.40;5.90;;;5.20;99.90;;;;;;6183300;23;20218;-84
2022/01/08 11:45:49;;;;;;;11.63;6.33;;;5.20;99.90;;;;;;6183125;23;20189;-85
2022/01/08 11:48:18;;;;;;;9.53;6.03;;;5.20;99.90;;;;;;6181564;23;20840;-85
2022/01/08 11:50:53;;;;;;;10.90;6.40;;;5.20;99.90;;;;;;6180993;23;20202;-85
2022/01/08 11:53:22;;;;;;;11.40;5.67;;;5.30;99.90;;;;;;6181153;23;20585;-85
2022/01/08 11:55:51;;;;;;;9.10;5.23;;;5.20;99.90;;;;;;6181562;23;20190;-86
2022/01/08 11:58:22;;;;;;;7.93;5.33;;;5.20;99.90;;;;;;6180585;23;20179;-86
2022/01/08 12:00:51;;;;;;;9.70;6.90;;;5.30;99.90;;;;;;6178912;23;20167;-85
2022/01/08 12:03:30;;;;;;;11.90;6.27;;;5.30;99.90;;;;;;6180824;23;20641;-82
2022/01/08 12:05:59;;;;;;;15.53;6.53;;;5.30;99.90;;;;;;6182137;23;20174;-83
2022/01/08 12:09:07;;;;;;;12.43;6.80;;;5.20;99.90;;;;;;6180772;23;20181;-83
2022/01/08 12:11:34;;;;;;;14.03;6.77;;;5.30;99.90;;;;;;6180595;23;20551;-84
2022/01/08 12:14:10;;;;;;;14.57;7.70;;;5.30;99.90;;;;;;6177962;23;20170;-82
2022/01/08 12:16:38;;;;;;;9.97;5.93;;;5.30;99.90;;;;;;6180750;23;20177;-84
2022/01/08 12:19:07;;;;;;;14.83;6.47;;;5.20;99.90;;;;;;6181828;23;20241;-84
2022/01/08 12:21:37;;;;;;;11.80;6.93;;;5.20;99.90;;;;;;6179505;23;20181;-86
2022/01/08 12:24:32;;;;;;;11.03;5.73;;;5.20;99.90;;;;;;6180982;23;20170;-86
2022/01/08 12:27:00;;;;;;;9.87;5.63;;;5.20;99.90;;;;;;6181044;23;20171;-83
2022/01/08 12:29:34;;;;;;;12.87;5.73;;;5.10;99.90;;;;;;6181516;23;20447;-85
2022/01/08 12:32:21;;;;;;;13.30;5.60;;;5.10;99.90;;;;;;6179955;23;20341;-86
2022/01/08 12:34:50;;;;;;;12.03;5.27;;;5.10;99.90;;;;;;6179387;23;20550;-86
2022/01/08 12:37:19;;;;;;;9.17;5.73;;;5.10;99.90;;;;;;6180604;23;20171;-86
2022/01/08 12:39:55;;;;;;;13.30;5.83;;;5.00;99.90;;;;;;6181304;23;20410;-87
2022/01/08 12:42:44;;;;;;;10.57;6.20;;;5.00;99.90;;;;;;6180349;23;20432;-85
2022/01/08 12:45:14;;;;;;;17.17;8.17;;;4.90;99.90;;;;;;6178759;23;20174;-84
2022/01/08 12:47:47;;;;;;;9.07;6.10;;;5.00;99.90;;;;;;6179928;23;20171;-83
2022/01/08 12:50:28;;;;;;;13.10;6.93;;;4.90;99.90;;;;;;6178895;23;20205;-82
2022/01/08 12:53:30;;;;;;;10.77;6.30;;;5.00;99.90;;;;;;6177787;23;20174;-82
2022/01/08 12:56:12;;;;;;;12.43;6.60;;;4.90;99.90;;;;;;6177769;23;20166;-83
2022/01/08 12:58:53;;;;;;;14.10;7.63;;;4.90;99.90;;;;;;6178464;23;20178;-84
2022/01/08 13:01:23;;;;;;;14.10;6.93;;;4.90;99.90;;;;;;6179101;23;20171;-83
2022/01/08 13:03:51;;;;;;;12.33;7.10;;;4.90;99.90;;;;;;6178234;23;20170;-83
2022/01/08 13:06:27;;;;;;;11.47;6.33;;;4.90;99.90;;;;;;6179304;23;20171;-85
2022/01/08 13:08:56;;;;;;;10.47;6.20;;;4.90;99.90;;;;;;6177931;23;20162;-82
2022/01/08 13:11:25;;;;;;;11.80;5.67;;;4.80;99.90;;;;;;6178954;23;20206;-82
2022/01/08 13:13:55;;;;;;;7.67;5.57;;;4.80;99.90;;;;;;6179622;23;20209;-83
2022/01/08 13:16:25;;;;;;;8.07;5.93;;;4.80;99.90;;;;;;6177964;23;20171;-83
2022/01/08 13:18:55;;;;;;;7.20;5.73;;;4.80;99.90;;;;;;6176143;23;20277;-84